Ana Sayfa
METAR-TAF:

METAR-TAF

Havaalanları :

Mountain Empire Airport

Marion / Wytheville, Virginia, Amerika Birleşik Devletleri

Enlem: 36-54N, Boylam: 081-21W, yükseklik: 780 m

Güncel hava durumu gözlemi

Rapor saat 09:15 UTC de 16 dakika önce yapıldı.
Rüzgar kuzeydoğudan 4 kt
Sıcaklık 17°C
Nem 100%
Basınç 1022 hPa
Görüş mesafesi: 11.3 km
300 ft yükseklikte parçalı çok bulutlu
12000 ft yükseklikte parçalı çok bulutlu

METAR: KMKJ 250915Z AUTO 05004KT 7SM BKN003 BKN120 17/17 A3019 RMK AO2 T01700170

Saat: 05:31 (09:31 UTC)


TAF: eksik

4.000'den fazla havaalanı için hava durumu gözlemleri ve tahminleri (METAR ve TAF raporları).

Kullanılabilir istasyonlar harita üzerinde sarı ve kırmızı noktalarla gösterilir.

İstasyonun adını görmek için fareyi noktanın üzerinde gezdirin.

Sonrasında hava gözlem ve tahminlerini görmek için tıklayın.

Haritayı değiştirmek için: yaklaştırmak için siyah artı işaretli yeşil düğmeye ve uzaklaştırmak için de eksi işaretli düğmeye hızla tıklayın; bitişik haritalar için yeşil okları kullanın.


METAR-TAF: